sensor_id;sensor_type;location;lat;lon;timestamp;P1;durP1;ratioP1;P2;durP2;ratioP2
61840;SDS011;47773;53.174;6.614;2024-03-23T00:54:19;28.90;;;5.05;;
61840;SDS011;47773;53.174;6.614;2024-03-23T00:56:45;30.33;;;4.97;;
61840;SDS011;47773;53.174;6.614;2024-03-23T00:59:11;30.77;;;5.38;;
61840;SDS011;47773;53.174;6.614;2024-03-23T01:01:36;33.80;;;4.88;;
61840;SDS011;47773;53.174;6.614;2024-03-23T01:04:02;37.17;;;5.93;;
61840;SDS011;47773;53.174;6.614;2024-03-23T01:06:28;45.95;;;5.32;;
61840;SDS011;47773;53.174;6.614;2024-03-23T01:08:54;30.83;;;5.72;;
61840;SDS011;47773;53.174;6.614;2024-03-23T01:11:19;37.97;;;4.63;;
61840;SDS011;47773;53.174;6.614;2024-03-23T01:13:45;26.55;;;4.28;;
61840;SDS011;47773;53.174;6.614;2024-03-23T01:16:11;30.23;;;5.80;;
61840;SDS011;47773;53.174;6.614;2024-03-23T01:18:36;29.90;;;5.47;;
61840;SDS011;47773;53.174;6.614;2024-03-23T01:21:02;36.45;;;4.78;;
61840;SDS011;47773;53.174;6.614;2024-03-23T01:23:28;25.52;;;4.80;;
61840;SDS011;47773;53.174;6.614;2024-03-23T01:25:54;34.20;;;5.13;;
61840;SDS011;47773;53.174;6.614;2024-03-23T01:28:20;29.67;;;5.38;;
61840;SDS011;47773;53.174;6.614;2024-03-23T01:30:46;27.65;;;4.88;;
61840;SDS011;47773;53.174;6.614;2024-03-23T01:33:12;28.55;;;4.38;;
61840;SDS011;47773;53.174;6.614;2024-03-23T01:35:38;27.33;;;5.03;;
61840;SDS011;47773;53.174;6.614;2024-03-23T01:38:03;44.17;;;5.43;;
61840;SDS011;47773;53.174;6.614;2024-03-23T01:40:29;28.42;;;4.97;;
61840;SDS011;47773;53.174;6.614;2024-03-23T01:42:58;22.65;;;4.93;;
61840;SDS011;47773;53.174;6.614;2024-03-23T01:45:29;27.35;;;4.82;;
61840;SDS011;47773;53.174;6.614;2024-03-23T01:47:55;31.50;;;5.25;;
61840;SDS011;47773;53.174;6.614;2024-03-23T01:50:21;33.25;;;5.03;;
61840;SDS011;47773;53.174;6.614;2024-03-23T01:52:48;28.15;;;4.53;;
61840;SDS011;47773;53.174;6.614;2024-03-23T01:55:14;29.85;;;5.20;;
61840;SDS011;47773;53.174;6.614;2024-03-23T01:57:40;23.63;;;4.25;;
61840;SDS011;47773;53.174;6.614;2024-03-23T02:00:06;24.25;;;4.72;;
61840;SDS011;47773;53.174;6.614;2024-03-23T02:02:32;27.70;;;4.93;;
61840;SDS011;47773;53.174;6.614;2024-03-23T02:04:58;29.65;;;5.13;;
61840;SDS011;47773;53.174;6.614;2024-03-23T02:07:24;29.85;;;4.28;;
61840;SDS011;47773;53.174;6.614;2024-03-23T02:09:50;33.90;;;4.53;;
61840;SDS011;47773;53.174;6.614;2024-03-23T02:12:17;41.63;;;5.22;;
61840;SDS011;47773;53.174;6.614;2024-03-23T02:14:43;27.52;;;4.53;;
61840;SDS011;47773;53.174;6.614;2024-03-23T02:17:09;24.83;;;4.38;;
61840;SDS011;47773;53.174;6.614;2024-03-23T02:19:34;40.92;;;4.45;;
61840;SDS011;47773;53.174;6.614;2024-03-23T02:22:00;33.97;;;4.60;;
61840;SDS011;47773;53.174;6.614;2024-03-23T02:24:26;25.58;;;4.20;;
61840;SDS011;47773;53.174;6.614;2024-03-23T02:26:51;25.63;;;4.15;;
61840;SDS011;47773;53.174;6.614;2024-03-23T02:29:17;28.05;;;4.63;;
61840;SDS011;47773;53.174;6.614;2024-03-23T02:31:44;27.13;;;4.55;;
61840;SDS011;47773;53.174;6.614;2024-03-23T02:34:10;22.98;;;4.05;;
61840;SDS011;47773;53.174;6.614;2024-03-23T02:36:36;32.00;;;4.30;;
61840;SDS011;47773;53.174;6.614;2024-03-23T02:39:01;29.55;;;4.88;;
61840;SDS011;47773;53.174;6.614;2024-03-23T02:41:27;28.00;;;4.60;;
61840;SDS011;47773;53.174;6.614;2024-03-23T02:43:52;27.92;;;3.85;;
61840;SDS011;47773;53.174;6.614;2024-03-23T02:46:18;22.38;;;4.13;;
61840;SDS011;47773;53.174;6.614;2024-03-23T02:48:44;27.08;;;4.35;;
61840;SDS011;47773;53.174;6.614;2024-03-23T02:51:09;28.70;;;4.82;;
61840;SDS011;47773;53.174;6.614;2024-03-23T02:53:35;23.92;;;4.50;;
61840;SDS011;47773;53.174;6.614;2024-03-23T02:56:01;38.72;;;5.22;;
61840;SDS011;47773;53.174;6.614;2024-03-23T02:58:27;24.45;;;4.18;;
61840;SDS011;47773;53.174;6.614;2024-03-23T03:00:52;19.73;;;3.00;;
61840;SDS011;47773;53.174;6.614;2024-03-23T03:03:18;29.52;;;4.00;;
61840;SDS011;47773;53.174;6.614;2024-03-23T03:05:44;27.13;;;3.90;;
61840;SDS011;47773;53.174;6.614;2024-03-23T03:08:09;29.85;;;3.97;;
61840;SDS011;47773;53.174;6.614;2024-03-23T03:10:35;26.33;;;4.18;;
61840;SDS011;47773;53.174;6.614;2024-03-23T03:13:01;21.05;;;3.90;;
61840;SDS011;47773;53.174;6.614;2024-03-23T03:15:27;22.45;;;3.72;;
61840;SDS011;47773;53.174;6.614;2024-03-23T03:17:53;21.30;;;3.53;;
61840;SDS011;47773;53.174;6.614;2024-03-23T03:20:19;21.02;;;3.42;;
61840;SDS011;47773;53.174;6.614;2024-03-23T03:22:47;17.15;;;3.42;;
61840;SDS011;47773;53.174;6.614;2024-03-23T03:25:12;23.17;;;3.92;;
61840;SDS011;47773;53.174;6.614;2024-03-23T03:27:38;24.13;;;3.72;;
61840;SDS011;47773;53.174;6.614;2024-03-23T03:30:04;28.13;;;3.50;;
61840;SDS011;47773;53.174;6.614;2024-03-23T03:32:32;27.80;;;4.20;;
61840;SDS011;47773;53.174;6.614;2024-03-23T03:34:58;19.38;;;3.35;;
61840;SDS011;47773;53.174;6.614;2024-03-23T03:37:23;24.08;;;4.18;;
61840;SDS011;47773;53.174;6.614;2024-03-23T03:39:49;24.52;;;4.03;;
61840;SDS011;47773;53.174;6.614;2024-03-23T03:42:15;26.92;;;4.38;;
61840;SDS011;47773;53.174;6.614;2024-03-23T03:44:40;27.33;;;3.50;;
61840;SDS011;47773;53.174;6.614;2024-03-23T03:47:06;29.58;;;3.50;;
61840;SDS011;47773;53.174;6.614;2024-03-23T03:49:32;18.55;;;3.80;;
61840;SDS011;47773;53.174;6.614;2024-03-23T03:51:58;28.75;;;3.47;;
61840;SDS011;47773;53.174;6.614;2024-03-23T03:54:24;26.80;;;3.20;;
61840;SDS011;47773;53.174;6.614;2024-03-23T03:56:49;19.38;;;3.38;;
61840;SDS011;47773;53.174;6.614;2024-03-23T03:59:15;26.02;;;4.00;;
61840;SDS011;47773;53.174;6.614;2024-03-23T04:01:42;21.17;;;3.35;;
61840;SDS011;47773;53.174;6.614;2024-03-23T04:04:08;24.95;;;3.90;;
61840;SDS011;47773;53.174;6.614;2024-03-23T04:06:33;18.60;;;3.17;;
61840;SDS011;47773;53.174;6.614;2024-03-23T04:08:59;23.33;;;3.50;;
61840;SDS011;47773;53.174;6.614;2024-03-23T04:11:24;21.90;;;3.38;;
61840;SDS011;47773;53.174;6.614;2024-03-23T04:13:50;19.05;;;3.00;;
61840;SDS011;47773;53.174;6.614;2024-03-23T04:16:29;24.25;;;4.10;;
61840;SDS011;47773;53.174;6.614;2024-03-23T04:18:57;21.73;;;3.08;;
61840;SDS011;47773;53.174;6.614;2024-03-23T04:21:23;24.17;;;3.08;;
61840;SDS011;47773;53.174;6.614;2024-03-23T04:23:48;28.60;;;3.65;;
61840;SDS011;47773;53.174;6.614;2024-03-23T04:26:14;26.95;;;3.25;;
61840;SDS011;47773;53.174;6.614;2024-03-23T04:31:10;29.27;;;3.72;;
61840;SDS011;47773;53.174;6.614;2024-03-23T04:33:35;21.48;;;3.90;;
61840;SDS011;47773;53.174;6.614;2024-03-23T04:36:01;23.73;;;3.67;;
61840;SDS011;47773;53.174;6.614;2024-03-23T04:38:27;24.90;;;3.20;;
61840;SDS011;47773;53.174;6.614;2024-03-23T04:40:54;16.63;;;3.50;;
61840;SDS011;47773;53.174;6.614;2024-03-23T04:43:23;19.92;;;3.15;;
61840;SDS011;47773;53.174;6.614;2024-03-23T04:45:49;20.02;;;3.20;;
61840;SDS011;47773;53.174;6.614;2024-03-23T04:48:15;25.20;;;3.15;;
61840;SDS011;47773;53.174;6.614;2024-03-23T04:50:41;24.00;;;3.33;;
61840;SDS011;47773;53.174;6.614;2024-03-23T04:53:06;26.50;;;3.83;;
61840;SDS011;47773;53.174;6.614;2024-03-23T04:55:32;26.52;;;3.60;;
61840;SDS011;47773;53.174;6.614;2024-03-23T04:57:58;15.85;;;2.80;;
61840;SDS011;47773;53.174;6.614;2024-03-23T05:00:24;15.75;;;3.22;;
61840;SDS011;47773;53.174;6.614;2024-03-23T05:02:50;18.42;;;2.47;;
61840;SDS011;47773;53.174;6.614;2024-03-23T05:05:16;32.88;;;3.92;;
61840;SDS011;47773;53.174;6.614;2024-03-23T05:07:41;20.65;;;2.85;;
61840;SDS011;47773;53.174;6.614;2024-03-23T05:10:09;25.80;;;3.17;;
61840;SDS011;47773;53.174;6.614;2024-03-23T05:12:38;21.77;;;2.88;;
61840;SDS011;47773;53.174;6.614;2024-03-23T05:15:05;20.77;;;3.28;;
61840;SDS011;47773;53.174;6.614;2024-03-23T05:17:32;26.30;;;3.50;;
61840;SDS011;47773;53.174;6.614;2024-03-23T05:19:57;22.92;;;3.33;;
61840;SDS011;47773;53.174;6.614;2024-03-23T05:22:23;25.25;;;3.72;;
61840;SDS011;47773;53.174;6.614;2024-03-23T05:24:50;20.48;;;4.20;;
61840;SDS011;47773;53.174;6.614;2024-03-23T05:27:15;20.48;;;3.35;;
61840;SDS011;47773;53.174;6.614;2024-03-23T05:29:41;18.50;;;2.80;;
61840;SDS011;47773;53.174;6.614;2024-03-23T05:32:06;21.25;;;2.80;;
61840;SDS011;47773;53.174;6.614;2024-03-23T05:34:32;22.60;;;3.08;;
61840;SDS011;47773;53.174;6.614;2024-03-23T05:36:58;16.98;;;2.80;;
61840;SDS011;47773;53.174;6.614;2024-03-23T05:39:26;15.57;;;2.70;;
61840;SDS011;47773;53.174;6.614;2024-03-23T05:41:52;20.40;;;3.97;;
61840;SDS011;47773;53.174;6.614;2024-03-23T05:44:18;16.98;;;3.25;;
61840;SDS011;47773;53.174;6.614;2024-03-23T05:46:43;20.08;;;3.17;;
61840;SDS011;47773;53.174;6.614;2024-03-23T05:49:13;18.45;;;2.92;;
61840;SDS011;47773;53.174;6.614;2024-03-23T05:51:40;20.40;;;2.92;;
61840;SDS011;47773;53.174;6.614;2024-03-23T05:54:06;21.15;;;2.72;;
61840;SDS011;47773;53.174;6.614;2024-03-23T05:56:32;20.15;;;3.22;;
61840;SDS011;47773;53.174;6.614;2024-03-23T05:58:57;23.17;;;3.40;;
61840;SDS011;47773;53.174;6.614;2024-03-23T06:01:23;21.85;;;2.80;;
61840;SDS011;47773;53.174;6.614;2024-03-23T06:03:49;17.48;;;3.00;;
61840;SDS011;47773;53.174;6.614;2024-03-23T06:06:14;19.67;;;2.60;;
61840;SDS011;47773;53.174;6.614;2024-03-23T06:08:40;18.50;;;2.83;;
61840;SDS011;47773;53.174;6.614;2024-03-23T06:11:06;16.48;;;2.60;;
61840;SDS011;47773;53.174;6.614;2024-03-23T06:13:34;10.20;;;1.90;;
61840;SDS011;47773;53.174;6.614;2024-03-23T06:16:00;14.30;;;1.85;;
61840;SDS011;47773;53.174;6.614;2024-03-23T06:18:26;25.95;;;2.88;;
61840;SDS011;47773;53.174;6.614;2024-03-23T06:20:53;11.77;;;1.80;;
61840;SDS011;47773;53.174;6.614;2024-03-23T06:23:18;11.32;;;1.83;;
61840;SDS011;47773;53.174;6.614;2024-03-23T06:25:45;9.88;;;1.30;;
61840;SDS011;47773;53.174;6.614;2024-03-23T06:28:13;10.07;;;1.40;;
61840;SDS011;47773;53.174;6.614;2024-03-23T06:30:39;7.70;;;1.30;;
61840;SDS011;47773;53.174;6.614;2024-03-23T06:33:04;4.90;;;0.90;;
61840;SDS011;47773;53.174;6.614;2024-03-23T06:35:33;6.78;;;1.13;;
61840;SDS011;47773;53.174;6.614;2024-03-23T06:37:58;6.75;;;1.10;;
61840;SDS011;47773;53.174;6.614;2024-03-23T06:40:24;6.30;;;1.23;;
61840;SDS011;47773;53.174;6.614;2024-03-23T06:42:49;9.70;;;1.30;;
61840;SDS011;47773;53.174;6.614;2024-03-23T06:45:16;7.60;;;1.50;;
61840;SDS011;47773;53.174;6.614;2024-03-23T06:47:43;7.45;;;1.30;;
61840;SDS011;47773;53.174;6.614;2024-03-23T06:50:08;14.48;;;1.40;;
61840;SDS011;47773;53.174;6.614;2024-03-23T06:52:35;9.02;;;1.38;;
61840;SDS011;47773;53.174;6.614;2024-03-23T06:55:01;8.25;;;1.67;;
61840;SDS011;47773;53.174;6.614;2024-03-23T06:57:29;21.20;;;2.08;;
61840;SDS011;47773;53.174;6.614;2024-03-23T06:59:55;7.95;;;1.30;;
61840;SDS011;47773;53.174;6.614;2024-03-23T07:02:20;10.85;;;2.03;;
61840;SDS011;47773;53.174;6.614;2024-03-23T07:04:46;12.00;;;1.67;;
61840;SDS011;47773;53.174;6.614;2024-03-23T07:07:12;12.40;;;1.90;;
61840;SDS011;47773;53.174;6.614;2024-03-23T07:09:37;10.57;;;1.63;;
61840;SDS011;47773;53.174;6.614;2024-03-23T07:12:03;8.90;;;1.42;;
61840;SDS011;47773;53.174;6.614;2024-03-23T07:14:29;10.07;;;1.88;;
61840;SDS011;47773;53.174;6.614;2024-03-23T07:16:55;7.80;;;1.73;;
61840;SDS011;47773;53.174;6.614;2024-03-23T07:19:21;6.05;;;1.40;;
61840;SDS011;47773;53.174;6.614;2024-03-23T07:21:47;12.32;;;1.77;;
61840;SDS011;47773;53.174;6.614;2024-03-23T07:24:13;8.10;;;1.50;;
61840;SDS011;47773;53.174;6.614;2024-03-23T07:26:38;8.32;;;1.70;;
61840;SDS011;47773;53.174;6.614;2024-03-23T07:29:05;8.25;;;1.50;;
61840;SDS011;47773;53.174;6.614;2024-03-23T07:31:31;8.30;;;1.30;;
61840;SDS011;47773;53.174;6.614;2024-03-23T07:33:57;5.43;;;1.20;;
61840;SDS011;47773;53.174;6.614;2024-03-23T07:36:23;7.55;;;0.95;;
61840;SDS011;47773;53.174;6.614;2024-03-23T07:38:48;8.68;;;1.27;;
61840;SDS011;47773;53.174;6.614;2024-03-23T07:41:15;4.38;;;0.90;;
61840;SDS011;47773;53.174;6.614;2024-03-23T07:43:44;10.20;;;1.10;;
61840;SDS011;47773;53.174;6.614;2024-03-23T07:46:11;8.30;;;1.10;;
61840;SDS011;47773;53.174;6.614;2024-03-23T07:48:37;6.65;;;1.48;;
61840;SDS011;47773;53.174;6.614;2024-03-23T07:51:05;5.85;;;0.80;;
61840;SDS011;47773;53.174;6.614;2024-03-23T07:53:33;6.88;;;0.80;;
61840;SDS011;47773;53.174;6.614;2024-03-23T07:56:00;8.50;;;1.10;;
61840;SDS011;47773;53.174;6.614;2024-03-23T07:58:33;6.47;;;1.23;;
61840;SDS011;47773;53.174;6.614;2024-03-23T08:01:03;5.47;;;1.20;;
61840;SDS011;47773;53.174;6.614;2024-03-23T08:03:37;9.15;;;1.60;;
61840;SDS011;47773;53.174;6.614;2024-03-23T08:06:07;13.00;;;1.70;;
61840;SDS011;47773;53.174;6.614;2024-03-23T08:08:33;10.10;;;1.30;;
61840;SDS011;47773;53.174;6.614;2024-03-23T08:10:59;7.07;;;1.27;;
61840;SDS011;47773;53.174;6.614;2024-03-23T08:13:26;10.18;;;1.30;;
61840;SDS011;47773;53.174;6.614;2024-03-23T08:15:51;11.73;;;1.65;;
61840;SDS011;47773;53.174;6.614;2024-03-23T08:18:21;7.05;;;1.50;;
61840;SDS011;47773;53.174;6.614;2024-03-23T08:20:46;8.18;;;1.73;;
61840;SDS011;47773;53.174;6.614;2024-03-23T08:23:12;11.68;;;1.63;;
61840;SDS011;47773;53.174;6.614;2024-03-23T08:25:37;12.55;;;1.83;;
61840;SDS011;47773;53.174;6.614;2024-03-23T08:28:03;8.38;;;1.60;;
61840;SDS011;47773;53.174;6.614;2024-03-23T08:30:29;10.85;;;1.75;;
61840;SDS011;47773;53.174;6.614;2024-03-23T08:32:55;12.05;;;2.17;;
61840;SDS011;47773;53.174;6.614;2024-03-23T08:35:20;14.18;;;1.88;;
61840;SDS011;47773;53.174;6.614;2024-03-23T08:37:46;8.13;;;1.83;;
61840;SDS011;47773;53.174;6.614;2024-03-23T08:40:12;9.18;;;2.00;;
61840;SDS011;47773;53.174;6.614;2024-03-23T08:42:37;11.20;;;1.45;;
61840;SDS011;47773;53.174;6.614;2024-03-23T08:45:03;16.00;;;2.67;;
61840;SDS011;47773;53.174;6.614;2024-03-23T08:47:29;12.45;;;2.13;;
61840;SDS011;47773;53.174;6.614;2024-03-23T08:49:55;9.07;;;2.17;;
61840;SDS011;47773;53.174;6.614;2024-03-23T08:52:22;13.85;;;1.98;;
61840;SDS011;47773;53.174;6.614;2024-03-23T08:54:48;18.73;;;2.45;;
61840;SDS011;47773;53.174;6.614;2024-03-23T08:57:14;11.23;;;2.20;;
61840;SDS011;47773;53.174;6.614;2024-03-23T08:59:39;6.70;;;1.75;;
61840;SDS011;47773;53.174;6.614;2024-03-23T09:02:05;10.57;;;1.48;;
61840;SDS011;47773;53.174;6.614;2024-03-23T09:04:30;13.48;;;1.98;;
61840;SDS011;47773;53.174;6.614;2024-03-23T09:06:56;10.40;;;1.90;;
61840;SDS011;47773;53.174;6.614;2024-03-23T09:09:24;9.27;;;2.30;;
61840;SDS011;47773;53.174;6.614;2024-03-23T09:11:49;11.10;;;2.40;;
61840;SDS011;47773;53.174;6.614;2024-03-23T09:14:15;14.43;;;3.08;;
61840;SDS011;47773;53.174;6.614;2024-03-23T09:16:40;8.65;;;1.88;;
61840;SDS011;47773;53.174;6.614;2024-03-23T09:19:06;15.07;;;1.98;;
61840;SDS011;47773;53.174;6.614;2024-03-23T09:21:32;8.88;;;2.05;;
61840;SDS011;47773;53.174;6.614;2024-03-23T09:23:58;16.20;;;2.35;;
61840;SDS011;47773;53.174;6.614;2024-03-23T09:26:24;16.80;;;2.63;;
61840;SDS011;47773;53.174;6.614;2024-03-23T09:28:49;14.50;;;2.67;;
61840;SDS011;47773;53.174;6.614;2024-03-23T09:31:15;13.00;;;2.30;;
61840;SDS011;47773;53.174;6.614;2024-03-23T09:33:41;16.20;;;2.22;;
61840;SDS011;47773;53.174;6.614;2024-03-23T09:36:07;11.35;;;2.13;;
61840;SDS011;47773;53.174;6.614;2024-03-23T09:38:33;13.15;;;2.13;;
61840;SDS011;47773;53.174;6.614;2024-03-23T09:40:59;10.52;;;2.05;;
61840;SDS011;47773;53.174;6.614;2024-03-23T09:43:25;11.52;;;2.13;;
61840;SDS011;47773;53.174;6.614;2024-03-23T09:45:53;11.43;;;1.63;;
61840;SDS011;47773;53.174;6.614;2024-03-23T09:48:18;11.45;;;1.80;;
61840;SDS011;47773;53.174;6.614;2024-03-23T09:50:45;15.30;;;1.60;;
61840;SDS011;47773;53.174;6.614;2024-03-23T09:53:12;6.22;;;1.50;;
61840;SDS011;47773;53.174;6.614;2024-03-23T09:55:39;4.75;;;0.85;;
61840;SDS011;47773;53.174;6.614;2024-03-23T09:58:06;8.88;;;1.20;;
61840;SDS011;47773;53.174;6.614;2024-03-23T10:00:32;11.82;;;1.33;;
61840;SDS011;47773;53.174;6.614;2024-03-23T10:02:58;6.70;;;1.17;;
61840;SDS011;47773;53.174;6.614;2024-03-23T10:05:27;12.43;;;1.23;;
61840;SDS011;47773;53.174;6.614;2024-03-23T10:07:55;7.22;;;1.40;;
61840;SDS011;47773;53.174;6.614;2024-03-23T10:10:21;6.68;;;1.15;;
61840;SDS011;47773;53.174;6.614;2024-03-23T10:12:47;5.15;;;0.90;;
61840;SDS011;47773;53.174;6.614;2024-03-23T10:17:47;8.60;;;1.40;;
61840;SDS011;47773;53.174;6.614;2024-03-23T10:20:13;9.40;;;1.38;;
61840;SDS011;47773;53.174;6.614;2024-03-23T10:22:45;10.45;;;1.15;;
61840;SDS011;47773;53.174;6.614;2024-03-23T10:25:11;14.75;;;1.75;;
61840;SDS011;47773;53.174;6.614;2024-03-23T10:27:39;10.77;;;1.75;;
61840;SDS011;47773;53.174;6.614;2024-03-23T10:30:11;8.43;;;1.52;;
61840;SDS011;47773;53.174;6.614;2024-03-23T10:32:40;17.15;;;2.53;;
61840;SDS011;47773;53.174;6.614;2024-03-23T10:35:18;8.00;;;1.65;;
61840;SDS011;47773;53.174;6.614;2024-03-23T10:37:47;11.65;;;2.00;;
61840;SDS011;47773;53.174;6.614;2024-03-23T10:40:15;11.90;;;1.85;;
61840;SDS011;47773;53.174;6.614;2024-03-23T10:42:41;10.90;;;1.38;;
61840;SDS011;47773;53.174;6.614;2024-03-23T10:45:07;3.80;;;0.70;;
61840;SDS011;47773;53.174;6.614;2024-03-23T10:47:34;5.65;;;0.75;;
61840;SDS011;47773;53.174;6.614;2024-03-23T10:50:01;7.95;;;1.00;;
61840;SDS011;47773;53.174;6.614;2024-03-23T10:52:28;6.53;;;0.93;;
61840;SDS011;47773;53.174;6.614;2024-03-23T10:54:54;5.03;;;0.82;;
61840;SDS011;47773;53.174;6.614;2024-03-23T10:57:21;7.97;;;1.42;;
61840;SDS011;47773;53.174;6.614;2024-03-23T10:59:52;6.07;;;1.55;;
61840;SDS011;47773;53.174;6.614;2024-03-23T11:02:19;6.80;;;1.15;;
61840;SDS011;47773;53.174;6.614;2024-03-23T11:04:45;10.82;;;1.35;;
61840;SDS011;47773;53.174;6.614;2024-03-23T11:09:51;9.63;;;1.20;;
61840;SDS011;47773;53.174;6.614;2024-03-23T11:17:26;11.60;;;1.38;;
61840;SDS011;47773;53.174;6.614;2024-03-23T11:19:53;8.30;;;1.30;;
61840;SDS011;47773;53.174;6.614;2024-03-23T11:25:26;5.95;;;1.33;;
61840;SDS011;47773;53.174;6.614;2024-03-23T11:27:52;6.88;;;1.17;;
61840;SDS011;47773;53.174;6.614;2024-03-23T11:30:25;11.98;;;1.70;;
61840;SDS011;47773;53.174;6.614;2024-03-23T11:32:53;7.55;;;1.40;;
61840;SDS011;47773;53.174;6.614;2024-03-23T11:40:43;12.57;;;1.70;;
61840;SDS011;47773;53.174;6.614;2024-03-23T11:43:16;9.30;;;1.58;;
61840;SDS011;47773;53.174;6.614;2024-03-23T11:45:46;10.40;;;1.45;;
61840;SDS011;47773;53.174;6.614;2024-03-23T11:48:13;11.00;;;1.48;;
61840;SDS011;47773;53.174;6.614;2024-03-23T11:50:43;7.28;;;1.40;;
61840;SDS011;47773;53.174;6.614;2024-03-23T11:55:46;7.50;;;1.52;;
61840;SDS011;47773;53.174;6.614;2024-03-23T11:58:12;8.45;;;1.20;;
61840;SDS011;47773;53.174;6.614;2024-03-23T12:00:39;5.43;;;1.52;;
61840;SDS011;47773;53.174;6.614;2024-03-23T12:03:05;8.70;;;1.73;;
61840;SDS011;47773;53.174;6.614;2024-03-23T12:05:32;10.05;;;1.33;;
61840;SDS011;47773;53.174;6.614;2024-03-23T12:13:34;6.45;;;1.08;;
61840;SDS011;47773;53.174;6.614;2024-03-23T12:16:09;7.72;;;1.63;;
61840;SDS011;47773;53.174;6.614;2024-03-23T12:18:37;8.32;;;1.33;;
61840;SDS011;47773;53.174;6.614;2024-03-23T12:21:07;6.63;;;0.80;;
61840;SDS011;47773;53.174;6.614;2024-03-23T12:23:33;8.32;;;1.40;;
61840;SDS011;47773;53.174;6.614;2024-03-23T12:25:59;4.40;;;1.00;;
61840;SDS011;47773;53.174;6.614;2024-03-23T12:28:25;10.13;;;1.10;;
61840;SDS011;47773;53.174;6.614;2024-03-23T12:30:51;10.07;;;1.23;;
61840;SDS011;47773;53.174;6.614;2024-03-23T12:33:19;9.13;;;1.23;;
61840;SDS011;47773;53.174;6.614;2024-03-23T12:35:46;5.55;;;0.95;;
61840;SDS011;47773;53.174;6.614;2024-03-23T12:38:12;5.50;;;1.40;;
61840;SDS011;47773;53.174;6.614;2024-03-23T12:40:38;8.40;;;0.90;;
61840;SDS011;47773;53.174;6.614;2024-03-23T12:43:03;6.70;;;1.10;;
61840;SDS011;47773;53.174;6.614;2024-03-23T12:45:29;6.85;;;1.30;;
61840;SDS011;47773;53.174;6.614;2024-03-23T12:47:55;9.25;;;1.20;;
61840;SDS011;47773;53.174;6.614;2024-03-23T12:50:20;4.10;;;0.85;;
61840;SDS011;47773;53.174;6.614;2024-03-23T12:52:46;4.43;;;1.13;;
61840;SDS011;47773;53.174;6.614;2024-03-23T12:55:12;6.28;;;0.90;;
61840;SDS011;47773;53.174;6.614;2024-03-23T12:57:38;10.45;;;1.30;;
61840;SDS011;47773;53.174;6.614;2024-03-23T13:00:05;6.55;;;1.00;;
61840;SDS011;47773;53.174;6.614;2024-03-23T13:02:34;7.40;;;1.00;;
61840;SDS011;47773;53.174;6.614;2024-03-23T13:05:00;5.22;;;0.93;;
61840;SDS011;47773;53.174;6.614;2024-03-23T13:07:25;11.45;;;1.30;;
61840;SDS011;47773;53.174;6.614;2024-03-23T13:09:51;8.80;;;1.08;;
61840;SDS011;47773;53.174;6.614;2024-03-23T13:12:18;8.35;;;1.60;;
61840;SDS011;47773;53.174;6.614;2024-03-23T13:14:47;5.03;;;0.90;;
61840;SDS011;47773;53.174;6.614;2024-03-23T13:17:13;7.15;;;0.80;;
61840;SDS011;47773;53.174;6.614;2024-03-23T13:19:39;12.93;;;1.40;;
61840;SDS011;47773;53.174;6.614;2024-03-23T13:22:05;11.77;;;2.20;;
61840;SDS011;47773;53.174;6.614;2024-03-23T13:24:30;4.07;;;1.00;;
61840;SDS011;47773;53.174;6.614;2024-03-23T13:26:56;4.47;;;0.95;;
61840;SDS011;47773;53.174;6.614;2024-03-23T13:29:23;7.82;;;1.05;;
61840;SDS011;47773;53.174;6.614;2024-03-23T13:31:49;7.53;;;1.00;;
61840;SDS011;47773;53.174;6.614;2024-03-23T13:34:16;13.27;;;1.30;;
61840;SDS011;47773;53.174;6.614;2024-03-23T13:36:46;9.43;;;1.42;;
61840;SDS011;47773;53.174;6.614;2024-03-23T13:39:12;11.90;;;2.00;;
61840;SDS011;47773;53.174;6.614;2024-03-23T13:41:39;9.77;;;1.83;;
61840;SDS011;47773;53.174;6.614;2024-03-23T13:44:06;10.80;;;2.05;;
61840;SDS011;47773;53.174;6.614;2024-03-23T13:46:32;13.63;;;1.60;;
61840;SDS011;47773;53.174;6.614;2024-03-23T13:48:58;14.73;;;1.60;;
61840;SDS011;47773;53.174;6.614;2024-03-23T13:51:25;8.43;;;2.08;;
61840;SDS011;47773;53.174;6.614;2024-03-23T13:53:56;10.32;;;2.00;;
61840;SDS011;47773;53.174;6.614;2024-03-23T13:56:22;12.93;;;1.35;;
61840;SDS011;47773;53.174;6.614;2024-03-23T13:58:48;9.25;;;1.20;;
61840;SDS011;47773;53.174;6.614;2024-03-23T14:01:14;5.30;;;1.50;;
61840;SDS011;47773;53.174;6.614;2024-03-23T14:03:41;8.38;;;1.75;;
61840;SDS011;47773;53.174;6.614;2024-03-23T14:06:08;8.05;;;1.50;;
61840;SDS011;47773;53.174;6.614;2024-03-23T14:08:34;4.90;;;1.15;;
61840;SDS011;47773;53.174;6.614;2024-03-23T14:11:01;9.82;;;1.65;;
61840;SDS011;47773;53.174;6.614;2024-03-23T14:13:28;10.93;;;1.98;;
61840;SDS011;47773;53.174;6.614;2024-03-23T14:15:55;8.60;;;1.23;;
61840;SDS011;47773;53.174;6.614;2024-03-23T14:18:20;11.10;;;1.30;;
61840;SDS011;47773;53.174;6.614;2024-03-23T14:20:48;6.65;;;1.33;;
61840;SDS011;47773;53.174;6.614;2024-03-23T14:23:16;8.95;;;1.73;;
61840;SDS011;47773;53.174;6.614;2024-03-23T14:25:42;9.18;;;1.10;;
61840;SDS011;47773;53.174;6.614;2024-03-23T14:28:08;9.40;;;1.10;;
61840;SDS011;47773;53.174;6.614;2024-03-23T14:30:40;5.67;;;1.27;;
61840;SDS011;47773;53.174;6.614;2024-03-23T14:33:07;11.60;;;1.73;;
61840;SDS011;47773;53.174;6.614;2024-03-23T14:35:32;7.07;;;1.20;;
61840;SDS011;47773;53.174;6.614;2024-03-23T14:37:58;11.38;;;1.58;;
61840;SDS011;47773;53.174;6.614;2024-03-23T14:40:24;7.38;;;1.30;;
61840;SDS011;47773;53.174;6.614;2024-03-23T14:42:56;15.05;;;2.15;;
61840;SDS011;47773;53.174;6.614;2024-03-23T14:45:21;13.70;;;2.20;;
61840;SDS011;47773;53.174;6.614;2024-03-23T14:47:48;12.00;;;2.55;;
61840;SDS011;47773;53.174;6.614;2024-03-23T14:50:14;14.75;;;3.63;;
61840;SDS011;47773;53.174;6.614;2024-03-23T14:52:45;14.55;;;2.38;;
61840;SDS011;47773;53.174;6.614;2024-03-23T14:55:11;13.68;;;2.45;;
61840;SDS011;47773;53.174;6.614;2024-03-23T14:57:37;13.80;;;2.08;;
61840;SDS011;47773;53.174;6.614;2024-03-23T15:00:07;15.75;;;2.10;;
61840;SDS011;47773;53.174;6.614;2024-03-23T15:02:35;12.48;;;1.40;;
61840;SDS011;47773;53.174;6.614;2024-03-23T15:05:05;13.75;;;1.80;;
61840;SDS011;47773;53.174;6.614;2024-03-23T15:07:35;16.00;;;5.03;;
61840;SDS011;47773;53.174;6.614;2024-03-23T15:10:03;16.40;;;2.65;;
61840;SDS011;47773;53.174;6.614;2024-03-23T15:12:33;10.85;;;1.80;;
61840;SDS011;47773;53.174;6.614;2024-03-23T15:14:59;5.85;;;0.98;;
61840;SDS011;47773;53.174;6.614;2024-03-23T15:17:25;6.63;;;1.10;;
61840;SDS011;47773;53.174;6.614;2024-03-23T15:19:51;5.68;;;1.55;;
61840;SDS011;47773;53.174;6.614;2024-03-23T15:22:18;9.52;;;1.25;;
61840;SDS011;47773;53.174;6.614;2024-03-23T15:24:45;8.93;;;1.40;;
61840;SDS011;47773;53.174;6.614;2024-03-23T15:27:11;11.63;;;1.45;;
61840;SDS011;47773;53.174;6.614;2024-03-23T15:29:36;8.85;;;1.52;;
61840;SDS011;47773;53.174;6.614;2024-03-23T15:32:03;9.18;;;1.50;;
61840;SDS011;47773;53.174;6.614;2024-03-23T15:34:29;7.88;;;1.48;;
61840;SDS011;47773;53.174;6.614;2024-03-23T15:36:55;9.52;;;1.65;;
61840;SDS011;47773;53.174;6.614;2024-03-23T15:39:20;11.20;;;1.63;;
61840;SDS011;47773;53.174;6.614;2024-03-23T15:41:47;13.27;;;1.33;;
61840;SDS011;47773;53.174;6.614;2024-03-23T15:44:13;9.63;;;1.40;;
61840;SDS011;47773;53.174;6.614;2024-03-23T15:46:39;16.45;;;1.92;;
61840;SDS011;47773;53.174;6.614;2024-03-23T15:49:05;12.02;;;2.47;;
61840;SDS011;47773;53.174;6.614;2024-03-23T15:51:31;7.40;;;1.10;;
61840;SDS011;47773;53.174;6.614;2024-03-23T15:54:02;12.10;;;1.80;;
61840;SDS011;47773;53.174;6.614;2024-03-23T15:56:31;8.13;;;1.33;;